Last 7 Days

Pierce College

10 Minute Data | America/Los_Angeles
as of 5/23/22 7:54 AM PDT
Date & Time Temp Max (°F) Temp Min (°F) RH (%) Dew Pt (°F) Latest Rain (In) Soil Temp (°F) Soil Moist (%) Pressure (mb) Wind Spd (mph) Wind Dir (°) Wind Gust (mph) Wind Gst Dir (°) Leaf Wet Raw (mV) Net Radiation (W/m²) Evap Pan Wind Spd (mph) Evap Pan WindRun (miles) Evap Pan H2O Temp (°F) Evap Pan Level (In) Seasonal Rainfall (In)
5/23/22 - 0740 57.0 56.1 79 50.1 0.00 73.0 29.5 1,014.9 1.0 NE | 54 2.6 ENE | 63 296 51 0.0 0.0 55.0 3.8 12.24
5/23/22 - 0730 56.2 55.2 82 50.2 0.00 73.0 29.5 1,014.8 0.5 ENE | 76 1.7 NNE | 23 303 38 0.0 0.0 53.4 3.8 12.24
5/23/22 - 0720 55.2 54.6 84 50.3 0.00 73.1 29.5 1,014.8 0.1 SW | 222 0.8 SW | 221 306 32 0.0 0.0 52.1 3.8 12.24
5/23/22 - 0710 54.7 53.8 87 50.4 0.00 73.2 29.5 1,014.6 0.6 NNW | 346 2.1 NNE | 16 311 24 0.0 0.0 50.6 3.8 12.24
5/23/22 - 0700 54.0 52.8 89 50.3 0.00 73.2 29.5 1,014.6 0.9 NNW | 338 2.4 WNW | 282 318 22 0.0 0.0 48.9 3.8 12.24
5/23/22 - 0650 52.9 52.1 90 49.6 0.00 73.2 29.5 1,014.5 0.6 SE | 125 1.4 SE | 136 322 17 0.0 0.0 47.4 3.8 12.24
5/23/22 - 0640 52.3 51.2 90 49.1 0.00 73.3 29.5 1,014.6 0.3 SW | 220 0.8 WSW | 237 325 11 0.0 0.0 46.3 3.8 12.24
5/23/22 - 0630 51.5 50.8 90 48.3 0.00 73.3 29.5 1,014.6 0.1 S | 179 0.7 S | 169 325 6 0.0 0.0 45.3 3.8 12.24
5/23/22 - 0620 51.0 50.5 90 48.0 0.00 73.3 29.5 1,014.8 0.3 S | 185 1.1 SSW | 203 325 0 0.0 0.0 44.4 3.8 12.24
5/23/22 - 0610 50.5 49.8 90 47.5 0.00 73.3 29.5 1,014.7 0.0 SSW | 206 0.6 S | 189 325 -5 0.0 0.0 44.0 3.8 12.24
5/23/22 - 0600 50.1 49.7 90 47.0 0.00 73.3 29.5 1,014.6 0.0 N | 0 0.0 SE | 127 325 -11 0.0 0.0 43.8 3.8 12.24
5/23/22 - 0550 50.5 49.8 90 47.2 0.00 73.3 29.5 1,014.5 0.5 SSE | 162 1.4 SE | 136 321 -14 0.0 0.0 43.8 3.8 12.24
5/23/22 - 0540 50.8 49.8 90 47.5 0.00 73.3 29.5 1,014.3 0.2 SSE | 159 1.1 SSE | 158 318 -17 0.0 0.0 43.8 3.8 12.24
5/23/22 - 0530 50.6 50.0 90 47.4 0.00 73.3 29.6 1,014.2 0.2 SSE | 164 1.8 S | 189 314 -18 0.0 0.0 43.8 3.8 12.24
5/23/22 - 0520 50.5 49.9 89 47.2 0.00 73.2 29.5 1,014.2 0.5 SSE | 168 1.6 SSW | 193 310 -18 0.0 0.0 43.8 3.8 12.24
5/23/22 - 0510 50.6 50.1 89 47.3 0.00 73.1 29.5 1,014.1 0.5 SSE | 158 1.6 SSW | 192 307 -18 0.0 0.0 43.8 3.8 12.24
5/23/22 - 0500 50.7 50.3 89 47.4 0.00 73.1 29.6 1,014.2 0.6 S | 190 1.8 S | 185 302 -19 0.0 0.0 43.9 3.8 12.24
5/23/22 - 0450 50.6 50.1 89 47.1 0.00 73.1 29.6 1,014.2 0.4 S | 184 1.4 S | 188 297 -19 0.0 0.0 43.9 3.8 12.24
5/23/22 - 0440 50.9 50.3 89 47.4 0.00 73.1 29.5 1,014.2 0.4 SSE | 154 1.4 SE | 143 292 -19 0.0 0.0 44.0 3.8 12.24
5/23/22 - 0430 51.2 50.4 88 47.4 0.00 73.0 29.6 1,014.4 0.5 S | 185 1.3 S | 191 286 -20 0.0 0.0 44.0 3.8 12.24
5/23/22 - 0420 51.3 50.8 89 47.8 0.00 73.0 29.6 1,014.5 0.2 SSE | 156 0.8 SSE | 158 279 -20 0.0 0.0 44.2 3.8 12.24
5/23/22 - 0410 51.1 50.8 88 47.5 0.00 73.0 29.5 1,014.5 0.5 S | 179 1.4 S | 180 271 -21 0.0 0.0 44.3 3.8 12.24
5/23/22 - 0400 51.6 51.1 88 47.8 0.00 73.0 29.6 1,014.6 0.1 SE | 146 0.6 SE | 143 266 -22 0.0 0.0 44.4 3.8 12.24
5/23/22 - 0350 51.4 51.1 88 47.7 0.00 73.0 29.6 1,014.6 0.2 SSE | 163 1.1 S | 181 262 -23 0.0 0.0 44.5 3.8 12.24
5/23/22 - 0340 51.5 51.1 88 47.7 0.00 73.0 29.6 1,014.5 0.2 SSE | 153 1.0 S | 181 262 -24 0.0 0.0 44.7 3.8 12.24
5/23/22 - 0330 51.4 51.1 87 47.6 0.00 73.0 29.6 1,014.5 0.7 SSE | 163 1.2 SE | 144 260 -25 0.0 0.0 44.9 3.8 12.24
5/23/22 - 0320 51.6 50.9 87 47.7 0.00 73.0 29.6 1,014.6 0.4 S | 169 1.2 S | 177 261 -25 0.0 0.0 45.1 3.8 12.24
5/23/22 - 0310 51.1 50.8 87 47.0 0.00 73.0 29.6 1,014.7 0.2 SSE | 151 0.9 SSE | 153 260 -27 0.0 0.0 45.2 3.8 12.24
5/23/22 - 0300 51.8 50.8 86 47.5 0.00 73.1 29.6 1,014.8 0.9 SSE | 165 1.7 S | 187 260 -27 0.0 0.0 45.2 3.8 12.24
5/23/22 - 0250 51.8 51.2 86 47.6 0.00 73.0 29.6 1,014.8 0.7 SSW | 207 2.5 SSW | 206 259 -29 0.0 0.0 45.2 3.8 12.24
5/23/22 - 0240 51.9 51.3 86 47.7 0.00 73.0 29.6 1,014.9 0.2 S | 173 0.8 S | 172 258 -31 0.0 0.0 45.4 3.8 12.24
5/23/22 - 0230 51.9 51.6 86 47.7 0.00 73.0 29.6 1,015.0 0.3 SSE | 164 1.2 S | 175 255 -32 0.0 0.0 45.7 3.8 12.24
5/23/22 - 0220 51.9 51.2 85 47.3 0.00 73.1 29.6 1,015.1 0.4 S | 173 1.4 SSE | 162 253 -34 0.0 0.0 45.8 3.8 12.24
5/23/22 - 0210 52.5 51.8 85 47.9 0.00 73.1 29.6 1,015.2 0.6 S | 182 2.3 SSW | 198 251 -34 0.0 0.0 46.0 3.8 12.24
5/23/22 - 0200 52.4 52.2 85 47.8 0.00 73.1 29.6 1,015.3 0.1 SSW | 205 0.8 SW | 221 250 -37 0.0 0.0 46.2 3.8 12.24
5/23/22 - 0150 52.6 52.2 85 47.8 0.00 73.2 29.6 1,015.4 1.2 S | 180 2.0 SW | 221 251 -39 0.0 0.0 46.2 3.8 12.24
5/23/22 - 0140 52.4 51.8 84 47.5 0.00 73.2 29.6 1,015.5 0.3 SSW | 192 1.8 S | 186 252 -41 0.0 0.0 46.3 3.8 12.24
5/23/22 - 0130 53.0 52.4 84 48.1 0.00 73.2 29.6 1,015.6 0.9 SSW | 194 1.8 S | 189 252 -41 0.0 0.0 46.4 3.8 12.24
5/23/22 - 0120 53.1 52.7 84 48.1 0.00 73.2 29.6 1,015.6 0.2 S | 175 1.0 S | 177 255 -45 0.0 0.0 46.6 3.8 12.24
5/23/22 - 0110 53.3 52.7 84 48.2 0.00 73.2 29.6 1,015.7 0.7 S | 182 1.9 S | 185 258 -47 0.0 0.0 46.8 3.8 12.24
5/23/22 - 0100 53.4 53.0 83 48.3 0.00 73.2 29.6 1,015.8 0.2 S | 172 1.1 S | 173 263 -48 0.0 6.6 47.2 3.8 12.24
5/23/22 - 0050 53.5 53.0 83 48.1 0.00 73.3 29.7 1,015.7 0.1 SE | 131 0.6 E | 99 268 -52 0.0 6.6 47.6 3.8 12.24
5/23/22 - 0040 53.9 53.3 83 48.4 0.00 73.3 29.6 1,015.8 0.6 S | 171 1.2 S | 172 271 -53 0.0 6.6 47.9 3.8 12.24
5/23/22 - 0030 54.1 53.7 82 48.7 0.00 73.3 29.6 1,015.8 0.3 WSW | 238 1.5 SW | 235 272 -53 0.0 6.6 48.3 3.8 12.24
5/23/22 - 0020 53.8 53.6 82 48.3 0.00 73.3 29.6 1,015.7 0.1 S | 173 0.9 S | 175 271 -56 0.0 6.6 48.9 3.8 12.24
5/23/22 - 0010 54.7 53.6 80 48.2 0.00 73.4 29.6 1,015.8 0.9 SSW | 193 2.2 SSW | 202 270 -59 0.0 6.6 49.4 3.8 12.24
5/23/22 - 0000 54.8 54.5 80 48.6 0.00 73.3 29.6 1,015.9 0.3 ESE | 122 1.8 ESE | 105 271 -61 0.0 6.6 50.0 3.8 12.24
5/22/22 - 2350 55.3 54.7 79 48.6 0.00 73.2 29.7 1,016.0 0.3 SE | 136 1.6 SE | 138 272 -62 0.0 6.6 50.2 3.8 12.24
5/22/22 - 2340 55.5 55.0 79 48.7 0.00 73.2 29.6 1,016.1 0.1 ESE | 105 0.8 SE | 146 272 -63 0.0 6.6 50.5 3.8 12.24
5/22/22 - 2330 55.6 55.0 79 48.9 0.00 73.2 29.6 1,016.2 0.8 E | 90 2.5 E | 80 273 -63 0.0 6.6 50.3 3.8 12.24
5/22/22 - 2320 55.7 55.2 78 48.6 0.00 73.2 29.7 1,016.3 0.5 SE | 140 1.6 SE | 130 272 -62 0.0 6.6 50.4 3.8 12.24
5/22/22 - 2310 56.0 55.5 77 48.6 0.00 73.2 29.7 1,016.4 0.1 SE | 142 0.8 SE | 140 272 -62 0.0 6.6 51.0 3.8 12.24
5/22/22 - 2300 56.3 55.8 76 48.8 0.00 73.1 29.6 1,016.4 0.1 ESE | 112 0.7 E | 94 272 -64 0.0 6.6 51.6 3.8 12.24
5/22/22 - 2250 56.4 56.1 77 49.0 0.00 73.2 29.7 1,016.4 0.7 E | 87 1.8 E | 86 272 -65 0.0 6.6 51.7 3.8 12.24
5/22/22 - 2240 56.4 55.8 77 49.0 0.00 73.1 29.6 1,016.5 1.0 ESE | 107 2.6 ENE | 69 272 -65 0.1 6.6 51.4 3.8 12.24
5/22/22 - 2230 56.4 55.8 76 48.6 0.00 73.1 29.7 1,016.6 0.8 SE | 124 2.7 SE | 130 272 -63 0.0 6.6 51.7 3.8 12.24
5/22/22 - 2220 56.6 56.3 76 48.8 0.00 73.0 29.7 1,016.5 0.0 E | 87 0.1 E | 87 271 -65 0.0 6.6 52.2 3.8 12.24
5/22/22 - 2210 56.8 56.4 75 48.7 0.00 72.9 29.6 1,016.4 0.4 SE | 124 1.2 SE | 141 271 -65 0.0 6.6 52.6 3.8 12.24
5/22/22 - 2200 57.5 56.8 74 48.7 0.00 72.9 29.6 1,016.5 0.1 SE | 134 0.7 SE | 129 271 -66 0.0 6.6 53.3 3.8 12.24
5/22/22 - 2150 58.2 57.4 72 48.7 0.00 72.8 29.6 1,016.3 0.1 E | 91 0.6 E | 90 271 -67 0.0 6.6 54.2 3.8 12.24
5/22/22 - 2140 58.6 58.2 72 49.3 0.00 72.8 29.7 1,016.1 0.4 NE | 43 1.9 NE | 50 270 -69 0.0 6.6 55.2 3.8 12.24
5/22/22 - 2130 58.8 58.4 71 49.3 0.00 72.7 29.7 1,015.9 0.4 ENE | 63 1.7 ENE | 78 270 -71 0.0 6.6 56.1 3.8 12.24
5/22/22 - 2120 59.9 58.9 69 49.2 0.00 72.7 29.7 1,015.8 1.0 E | 95 2.7 ENE | 78 270 -71 0.1 6.6 56.5 3.8 12.24
5/22/22 - 2110 61.0 59.9 67 49.3 0.00 72.7 29.6 1,015.8 0.7 NE | 56 1.9 NE | 36 269 -72 0.0 6.5 57.2 3.8 12.24
5/22/22 - 2100 61.6 60.8 65 49.2 0.00 72.7 29.6 1,015.6 0.6 NNE | 24 3.0 NNW | 333 269 -72 0.0 6.5 58.0 3.8 12.24
5/22/22 - 2050 61.6 61.3 64 49.2 0.00 72.7 29.6 1,015.5 0.7 NE | 41 2.1 NE | 39 268 -73 0.0 6.5 59.1 3.8 12.24
5/22/22 - 2040 62.4 61.4 63 49.1 0.00 72.8 29.6 1,015.5 1.0 ENE | 67 2.7 E | 100 268 -74 0.1 6.5 60.0 3.8 12.24
5/22/22 - 2030 63.5 62.2 61 49.0 0.00 72.6 29.6 1,015.3 1.1 ENE | 70 2.3 ESE | 105 268 -76 0.3 6.5 60.7 3.8 12.24
5/22/22 - 2020 64.4 63.2 59 49.1 0.00 72.7 29.6 1,015.1 1.0 ENE | 62 2.1 NNE | 24 268 -77 0.1 6.5 61.8 3.8 12.24
5/22/22 - 2010 65.7 64.3 57 49.3 0.00 72.7 29.6 1,015.0 0.8 ENE | 77 3.1 ENE | 64 268 -77 0.2 6.4 62.9 3.8 12.24
5/22/22 - 2000 66.3 65.5 56 49.6 0.00 72.7 29.6 1,014.9 1.0 ENE | 61 4.3 ENE | 74 268 -76 0.1 6.4 64.3 3.8 12.24
5/22/22 - 1950 66.9 66.3 55 49.9 0.00 72.8 29.6 1,014.7 1.0 E | 92 3.8 E | 79 268 -72 0.0 6.4 65.4 3.8 12.24
5/22/22 - 1940 67.7 67.0 54 50.1 0.00 72.7 29.6 1,014.7 1.3 ESE | 121 2.1 ENE | 66 267 -67 0.1 6.4 67.1 3.8 12.24
5/22/22 - 1930 68.7 67.6 53 50.2 0.00 72.8 29.6 1,014.5 1.7 SE | 127 3.2 SE | 131 267 -57 0.2 6.4 68.5 3.8 12.24
5/22/22 - 1920 69.3 68.7 51 50.3 0.00 72.7 29.6 1,014.4 1.4 SE | 127 3.6 SE | 126 267 -39 0.2 6.3 69.7 3.8 12.24
5/22/22 - 1910 69.6 68.9 51 50.4 0.00 72.8 29.6 1,014.4 1.5 SSE | 165 5.1 SSW | 212 267 -20 0.3 6.3 70.9 3.8 12.24
5/22/22 - 1900 70.5 69.4 50 50.4 0.00 72.9 29.6 1,014.3 2.7 SSE | 168 5.1 S | 179 266 -14 0.5 6.3 72.4 3.8 12.24
5/22/22 - 1850 71.5 70.5 48 50.5 0.00 72.8 29.6 1,014.3 2.5 SSE | 160 4.8 SSW | 208 266 -16 0.4 6.2 73.9 3.8 12.24
5/22/22 - 1840 72.1 71.3 47 50.4 0.00 72.7 29.6 1,014.4 2.5 S | 179 6.7 S | 179 266 27 0.6 6.1 75.3 3.8 12.24
5/22/22 - 1830 72.4 72.0 46 50.4 0.00 72.7 29.6 1,014.5 2.7 SSE | 150 5.4 SSW | 200 266 69 0.4 6.0 76.5 3.8 12.24
5/22/22 - 1820 73.4 72.1 45 50.2 0.00 72.6 29.6 1,014.4 3.4 S | 176 5.7 S | 178 266 95 0.9 5.9 77.8 3.8 12.24
5/22/22 - 1810 74.8 73.2 43 50.3 0.00 72.5 29.5 1,014.4 3.1 S | 182 6.9 S | 189 266 119 0.8 5.8 79.0 3.8 12.24
5/22/22 - 1800 74.6 74.2 43 50.3 0.00 72.5 29.6 1,014.4 2.6 S | 171 5.8 SE | 142 266 145 0.7 5.7 80.0 3.8 12.24
5/22/22 - 1750 74.8 74.3 42 50.1 0.00 72.4 29.6 1,014.3 3.2 SSE | 166 6.4 S | 171 266 171 0.8 5.5 80.7 3.8 12.24
5/22/22 - 1740 76.1 74.5 41 50.1 0.00 72.5 29.5 1,014.2 3.4 SSE | 162 6.9 SSW | 196 266 198 0.5 5.4 82.2 3.8 12.24
5/22/22 - 1730 76.5 75.8 40 50.2 0.00 73.3 29.5 1,014.2 3.0 SSW | 192 5.2 S | 177 266 223 1.1 5.3 84.0 3.8 12.24
5/22/22 - 1720 76.5 75.8 40 50.1 0.00 73.3 29.5 1,014.2 3.6 S | 169 7.1 SSE | 149 266 248 0.6 5.1 84.8 3.8 12.24
5/22/22 - 1710 78.1 76.0 39 50.0 0.00 73.2 29.5 1,014.2 5.2 SSW | 213 9.2 SW | 220 266 272 1.4 5.0 86.1 3.8 12.24
5/22/22 - 1700 80.2 78.0 36 50.2 0.00 73.2 29.5 1,014.2 2.1 SW | 222 6.6 S | 190 266 293 0.7 4.8 87.1 3.8 12.24
5/22/22 - 1650 79.7 78.9 37 50.5 0.00 73.1 29.5 1,014.1 1.9 NNW | 338 4.0 NW | 326 265 315 0.3 4.7 87.5 3.8 12.24
5/22/22 - 1640 79.7 78.4 37 50.6 0.00 73.0 29.5 1,014.1 2.3 NE | 40 7.0 E | 98 266 342 0.3 4.6 88.6 3.8 12.24
5/22/22 - 1630 79.7 78.9 37 50.6 0.00 73.0 29.5 1,014.2 1.7 ENE | 76 5.4 SE | 134 266 368 0.4 4.6 89.8 3.8 12.24
5/22/22 - 1620 79.7 78.9 36 49.9 0.00 72.9 29.5 1,014.4 2.4 SSE | 164 5.2 SW | 219 265 391 0.8 4.5 91.0 3.8 12.24
5/22/22 - 1610 79.4 78.5 37 50.2 0.00 72.8 29.5 1,014.4 2.9 SSE | 147 5.6 SSE | 166 265 414 0.7 4.4 92.4 3.8 12.24
5/22/22 - 1600 79.5 78.2 37 50.4 0.00 72.9 29.4 1,014.4 2.3 SSE | 165 6.2 SSW | 213 265 435 0.4 4.3 93.9 3.8 12.24
5/22/22 - 1550 79.0 78.1 37 50.3 0.00 72.8 29.4 1,014.5 3.0 SSW | 199 6.4 S | 172 265 455 0.6 4.2 95.0 3.8 12.24
5/22/22 - 1540 79.1 77.2 38 50.4 0.00 72.7 29.4 1,014.6 2.9 S | 172 7.2 SSW | 197 265 476 0.8 4.1 96.4 3.8 12.24
5/22/22 - 1530 78.1 77.2 38 50.4 0.00 72.6 29.4 1,014.8 3.0 SSW | 204 9.1 S | 179 266 493 1.0 4.0 97.8 3.8 12.24
5/22/22 - 1520 78.1 77.3 39 50.4 0.00 72.6 29.4 1,014.9 2.9 SW | 226 8.7 SSW | 208 266 511 0.8 3.8 98.8 3.8 12.24
5/22/22 - 1510 78.6 77.4 38 50.7 0.00 72.5 29.4 1,014.9 2.7 SSE | 162 6.5 SW | 231 266 527 0.8 3.7 100.3 3.8 12.24
5/22/22 - 1500 78.0 77.1 39 50.7 0.00 72.5 29.4 1,015.1 2.1 SSW | 210 6.4 SSE | 148 266 543 0.7 3.5 101.5 3.8 12.24
5/22/22 - 1450 77.6 76.3 40 50.9 0.00 72.4 29.4 1,015.2 2.8 SSE | 167 6.4 W | 265 266 559 1.0 3.4 102.2 3.8 12.24
5/22/22 - 1440 77.2 76.5 40 51.1 0.00 72.4 29.4 1,015.2 3.2 S | 172 7.4 S | 183 266 572 1.1 3.3 103.5 3.8 12.24
5/22/22 - 1430 77.2 75.7 41 51.3 0.00 72.4 29.4 1,015.2 2.5 SE | 145 6.1 ESE | 116 266 584 0.6 3.1 106.1 3.8 12.24
5/22/22 - 1420 77.0 75.2 42 51.4 0.00 72.3 29.4 1,015.4 4.1 S | 184 7.7 SE | 138 266 595 0.9 3.0 110.7 3.8 12.24
5/22/22 - 1410 77.3 75.8 42 51.6 0.00 72.2 29.4 1,015.5 3.9 S | 176 6.6 SW | 233 266 604 0.5 2.8 116.3 3.8 12.24
5/22/22 - 1400 77.4 76.5 41 51.8 0.00 72.3 29.4 1,015.5 3.4 SSW | 205 7.8 S | 179 266 613 0.5 2.8 118.1 3.8 12.24
5/22/22 - 1350 76.9 75.6 42 51.8 0.00 72.2 29.4 1,015.5 2.8 SSE | 163 5.9 S | 177 266 622 0.7 2.7 117.6 3.8 12.24
5/22/22 - 1340 77.0 74.6 43 52.0 0.00 72.2 29.4 1,015.5 4.1 SE | 124 11.4 ENE | 77 265 631 1.3 2.6 122.8 3.8 12.24
5/22/22 - 1330 77.4 75.8 42 52.2 0.00 72.1 29.3 1,015.5 3.1 SSE | 151 6.7 SSE | 167 264 635 0.8 2.3 126.9 3.8 12.24
5/22/22 - 1320 77.0 75.4 44 52.2 0.00 72.1 29.4 1,015.5 2.4 SE | 140 7.4 SSE | 164 265 638 0.7 2.2 126.4 3.8 12.24
5/22/22 - 1310 77.0 75.1 43 52.2 0.00 72.1 29.3 1,015.6 2.8 ESE | 108 7.7 ENE | 66 265 642 0.9 2.1 126.4 3.8 12.24
5/22/22 - 1300 77.0 76.0 43 52.4 0.00 72.1 29.4 1,015.7 2.5 SE | 126 7.1 SSE | 158 264 643 0.9 1.9 131.2 3.8 12.24
5/22/22 - 1250 77.7 76.0 42 52.2 0.00 72.0 29.3 1,015.8 2.3 ENE | 67 5.4 SE | 133 264 641 0.8 1.8 131.8 3.8 12.24
5/22/22 - 1240 77.6 76.6 41 51.9 0.00 72.0 29.3 1,015.9 2.3 ENE | 75 5.3 SE | 132 264 640 0.7 1.7 133.5 3.8 12.24
5/22/22 - 1230 77.1 75.0 42 51.4 0.00 71.9 29.3 1,016.0 3.2 ENE | 67 9.1 SE | 126 264 639 0.9 1.5 134.3 3.8 12.24
5/22/22 - 1220 77.6 75.8 38 49.9 0.00 72.0 29.3 1,016.1 2.0 ESE | 118 5.9 ENE | 63 264 636 0.5 1.4 138.3 3.8 12.24
5/22/22 - 1210 77.9 77.2 37 49.0 0.00 72.0 29.3 1,016.1 1.6 NW | 317 3.8 NNE | 27 264 629 0.6 1.3 136.2 3.8 12.24
5/22/22 - 1200 77.7 75.4 38 49.0 0.00 71.9 29.3 1,016.1 1.5 ENE | 74 4.7 NE | 35 264 623 0.5 1.2 132.8 3.8 12.24
5/22/22 - 1150 75.6 73.4 40 48.7 0.00 72.0 29.3 1,016.2 2.4 E | 81 4.1 E | 101 264 618 0.8 1.1 132.0 3.8 12.24
5/22/22 - 1140 75.4 73.4 40 48.6 0.00 72.0 29.3 1,016.3 2.4 NNE | 23 4.8 W | 272 264 609 0.6 1.0 131.0 3.8 12.24
5/22/22 - 1130 74.9 73.9 40 48.8 0.00 72.0 29.3 1,016.3 1.9 SW | 218 5.5 W | 274 264 601 0.8 0.9 127.8 3.8 12.24
5/22/22 - 1120 74.9 73.2 41 48.9 0.00 72.0 29.3 1,016.5 1.5 NNW | 342 4.0 WSW | 253 264 592 0.3 0.8 124.6 3.8 12.24
5/22/22 - 1110 74.8 72.8 41 48.5 0.00 72.0 29.3 1,016.7 2.0 E | 88 5.2 SSW | 204 264 575 0.4 0.7 125.0 3.8 12.24
5/22/22 - 1100 74.9 73.8 41 49.0 0.00 72.1 29.3 1,016.6 0.9 N | 358 3.6 NE | 53 264 567 0.2 0.7 123.8 3.8 12.24
5/22/22 - 1050 74.2 70.8 43 48.8 0.00 72.0 29.3 1,016.6 0.5 NNW | 329 2.5 NW | 312 264 555 0.2 0.6 125.3 3.8 12.24
5/22/22 - 1040 70.8 70.1 45 48.0 0.00 72.0 29.3 1,016.7 2.3 S | 180 5.7 SSW | 192 265 542 0.3 0.6 127.4 3.8 12.24
5/22/22 - 1030 71.6 70.5 45 48.4 0.00 72.0 29.3 1,016.6 2.3 WSW | 247 5.4 WSW | 246 264 526 0.5 0.5 125.5 3.8 12.24
5/22/22 - 1020 70.6 69.6 46 48.4 0.00 72.1 29.3 1,016.7 1.7 WSW | 253 4.9 W | 276 265 509 0.6 0.4 122.4 3.8 12.24
5/22/22 - 1010 70.5 68.9 47 48.7 0.00 72.0 29.4 1,016.8 1.5 E | 84 4.1 SE | 136 265 492 0.3 0.3 120.5 3.8 12.24
5/22/22 - 1000 70.0 69.4 47 48.7 0.00 72.1 29.4 1,016.9 0.5 WNW | 288 1.4 NE | 37 265 470 0.3 0.3 117.7 3.8 12.24
5/22/22 - 0950 69.5 67.8 49 48.6 0.00 72.3 29.4 1,017.0 0.8 N | 3 3.0 N | 7 265 452 0.1 0.2 114.4 3.8 12.24
5/22/22 - 0940 67.9 67.3 50 48.6 0.00 72.2 29.4 1,017.1 1.5 SW | 232 4.8 S | 189 266 433 0.4 0.2 109.5 3.8 12.24
5/22/22 - 0930 67.1 66.0 53 48.9 0.00 72.3 29.4 1,017.2 0.6 N | 353 2.7 WNW | 286 266 412 0.1 0.2 104.4 3.8 12.24
5/22/22 - 0920 66.0 65.4 54 48.8 0.00 72.2 29.4 1,017.3 0.7 N | 4 2.4 NNE | 18 266 391 0.1 0.1 98.8 3.8 12.24
5/22/22 - 0910 65.4 63.8 57 48.9 0.00 72.2 29.5 1,017.4 0.7 WNW | 292 3.1 NNW | 334 266 371 0.1 0.1 91.6 3.8 12.24
5/22/22 - 0900 63.9 61.5 60 48.6 0.00 72.2 29.4 1,017.4 1.0 NE | 36 3.2 N | 9 266 355 0.1 0.1 84.5 3.8 12.24
5/22/22 - 0850 61.6 60.4 64 48.6 0.00 72.2 29.5 1,017.4 1.3 NNE | 28 3.0 E | 91 268 351 0.1 0.1 74.1 3.8 12.24
5/22/22 - 0840 60.4 59.4 66 48.5 0.00 72.2 29.5 1,017.4 0.8 ENE | 57 2.9 NE | 49 270 114 0.1 0.1 60.8 3.8 12.24
5/22/22 - 0830 59.5 58.9 67 48.4 0.00 72.1 29.5 1,017.4 0.6 WSW | 250 1.9 W | 278 271 -4 0.1 0.1 57.3 3.8 12.24
5/22/22 - 0820 58.9 58.2 69 48.2 0.00 72.2 29.5 1,017.4 0.8 NE | 53 2.8 E | 85 272 10 0.1 0.1 56.4 3.8 12.24
5/22/22 - 0810 58.4 57.6 70 48.1 0.00 72.1 29.5 1,017.4 1.2 NE | 55 2.5 E | 98 275 28 0.2 0.0 55.8 3.8 12.24
5/22/22 - 0800 57.7 56.9 71 48.1 0.00 72.1 29.5 1,017.5 0.4 SE | 130 2.1 E | 81 275 31 0.0 0.0 55.1 3.8 12.24
5/22/22 - 0750 57.0 56.0 73 48.1 0.00 72.1 29.5 1,017.5 0.6 NNE | 12 2.4 NNE | 27 276 86 0.0 0.0 53.6 3.8 12.24
5/22/22 - 0740 56.2 55.2 76 48.2 0.00 72.0 29.5 1,017.5 0.1 N | 11 0.9 WNW | 298 290 35 0.0 0.0 51.4 3.8 12.24
5/22/22 - 0730 55.5 54.3 79 48.6 0.00 72.0 29.5 1,017.5 0.6 N | 7 1.8 N | 10 296 22 0.0 0.0 50.0 3.8 12.24
5/22/22 - 0720 54.2 53.5 84 49.1 0.00 71.9 29.6 1,017.4 0.1 WNW | 286 1.6 W | 278 298 22 0.0 0.0 48.6 3.8 12.24
5/22/22 - 0710 53.6 52.6 86 49.0 0.00 71.9 29.5 1,017.3 0.0 N | 0 0.0 E | 100 303 19 0.0 0.0 46.9 3.8 12.24
5/22/22 - 0700 52.8 51.6 88 48.7 0.00 71.9 29.5 1,017.3 0.0 N | 0 0.0 SE | 135 308 16 0.0 0.0 45.7 3.8 12.24
5/22/22 - 0650 51.6 50.8 89 48.1 0.00 71.9 29.6 1,017.3 0.2 SE | 142 0.8 SE | 142 310 11 0.0 0.0 44.6 3.8 12.24
5/22/22 - 0640 51.0 50.3 89 47.6 0.00 71.9 29.5 1,017.2 0.0 SE | 142 0.3 SE | 142 310 6 0.0 0.0 43.6 3.8 12.24
5/22/22 - 0630 50.5 50.0 90 47.3 0.00 72.0 29.6 1,017.2 0.0 SSE | 147 0.6 SSE | 147 310 2 0.0 0.0 42.8 3.8 12.24
5/22/22 - 0620 50.3 49.3 90 46.9 0.00 72.0 29.6 1,017.0 0.4 SSE | 159 0.9 SSE | 153 308 -4 0.0 0.0 42.2 3.8 12.24
5/22/22 - 0610 49.4 48.7 89 46.2 0.00 72.0 29.6 1,017.0 0.1 S | 175 0.5 S | 172 307 -8 0.0 0.0 41.9 3.8 12.24
5/22/22 - 0600 49.0 48.6 89 45.7 0.00 72.1 29.6 1,016.9 0.7 SE | 144 1.7 S | 185 306 -14 0.0 0.0 41.5 3.8 12.24
5/22/22 - 0550 49.2 48.7 89 45.7 0.00 72.2 29.6 1,016.9 0.9 S | 171 1.9 S | 191 301 -18 0.0 0.0 41.3 3.8 12.24
5/22/22 - 0540 49.3 48.9 88 45.8 0.00 72.2 29.6 1,016.8 0.5 S | 178 1.3 SSW | 192 297 -20 0.0 0.0 41.2 3.8 12.24
5/22/22 - 0530 49.8 49.2 88 46.3 0.00 72.2 29.6 1,016.8 0.3 SSE | 160 0.7 SSE | 157 291 -21 0.0 0.0 41.3 3.8 12.24
5/22/22 - 0520 49.8 49.4 88 46.2 0.00 72.2 29.6 1,016.7 0.0 SSE | 167 0.6 SSE | 167 285 -22 0.0 0.0 41.6 3.8 12.24
5/22/22 - 0510 50.1 49.4 88 46.3 0.00 72.2 29.6 1,016.8 0.5 SSE | 158 1.2 SSE | 148 280 -23 0.0 0.0 41.8 3.8 12.24
5/22/22 - 0500 49.9 49.5 88 46.2 0.00 72.2 29.6 1,016.9 0.6 SSE | 166 1.2 SSE | 148 275 -25 0.0 0.0 42.0 3.8 12.24
5/22/22 - 0450 50.0 49.6 87 46.0 0.00 72.2 29.6 1,016.7 0.5 S | 179 1.3 S | 189 272 -25 0.0 0.0 42.1 3.8 12.24
5/22/22 - 0440 50.4 49.8 86 46.3 0.00 72.1 29.6 1,016.8 0.1 SSE | 159 0.7 SSE | 158 271 -27 0.0 0.0 42.3 3.8 12.24
5/22/22 - 0430 50.8 50.3 86 46.5 0.00 72.2 29.6 1,016.9 0.0 S | 174 0.4 S | 174 271 -28 0.0 0.0 42.5 3.8 12.24
5/22/22 - 0420 50.9 50.6 86 46.6 0.00 72.1 29.6 1,016.8 0.1 S | 189 0.8 SSW | 192 270 -30 0.0 0.0 42.6 3.8 12.24
5/22/22 - 0410 51.1 50.7 85 46.6 0.00 72.1 29.6 1,016.8 0.1 SSE | 166 0.9 S | 173 268 -33 0.0 0.0 42.8 3.8 12.24
5/22/22 - 0400 51.1 50.8 85 46.4 0.00 72.2 29.7 1,016.7 0.4 S | 187 1.5 S | 183 266 -35 0.0 0.0 43.1 3.8 12.24
5/22/22 - 0350 51.2 50.9 84 46.5 0.00 72.3 29.6 1,016.7 0.5 SSW | 196 1.7 SSE | 168 264 -37 0.0 0.0 43.4 3.8 12.24
5/22/22 - 0340 51.5 51.1 84 46.6 0.00 72.4 29.6 1,016.7 0.2 S | 174 1.0 SSE | 160 263 -40 0.0 0.0 43.6 3.8 12.24
5/22/22 - 0330 51.6 51.1 83 46.5 0.00 72.4 29.6 1,016.7 0.4 S | 183 1.2 S | 184 261 -42 0.0 0.0 43.8 3.8 12.24
5/22/22 - 0320 51.9 51.4 82 46.5 0.00 72.4 29.6 1,016.7 0.0 N | 0 0.0 S | 176 259 -46 0.0 0.0 44.1 3.8 12.24
5/22/22 - 0310 52.3 51.7 82 46.8 0.00 72.4 29.6 1,016.7 0.4 SSW | 193 1.0 SSW | 211 258 -47 0.0 0.0 44.5 3.8 12.24
5/22/22 - 0300 52.4 51.9 81 46.6 0.00 72.4 29.6 1,016.7 0.2 SSE | 156 0.8 SSE | 160 258 -50 0.0 0.0 44.9 3.8 12.24
5/22/22 - 0250 52.8 52.2 80 46.6 0.00 72.5 29.7 1,016.7 0.1 SE | 139 0.7 SE | 138 258 -53 0.0 0.0 45.3 3.8 12.24
5/22/22 - 0240 52.9 52.5 80 46.7 0.00 72.5 29.7 1,016.8 0.0 SSE | 152 0.5 SSE | 160 264 -54 0.0 0.0 45.8 3.8 12.24
5/22/22 - 0230 53.1 52.7 79 46.6 0.00 72.6 29.7 1,016.9 0.0 NE | 38 0.0 NE | 38 268 -56 0.0 0.0 46.2 3.8 12.24
5/22/22 - 0220 53.1 52.7 79 46.5 0.00 72.7 29.7 1,016.9 0.1 SE | 144 1.3 SSE | 165 271 -56 0.0 0.0 46.5 3.8 12.24
5/22/22 - 0210 53.4 52.9 78 46.5 0.00 72.7 29.7 1,016.9 0.0 SW | 218 0.4 SSW | 208 273 -56 0.0 0.0 46.9 3.8 12.24
5/22/22 - 0200 54.3 53.4 76 46.5 0.00 72.7 29.7 1,016.8 0.1 ESE | 107 0.7 ENE | 69 274 -58 0.0 0.0 47.5 3.8 12.24
5/22/22 - 0150 54.6 54.2 76 47.0 0.00 72.7 29.7 1,016.9 0.0 SSW | 203 0.4 SSW | 203 274 -58 0.0 0.0 48.1 3.8 12.24
5/22/22 - 0140 54.4 54.0 76 46.8 0.00 72.7 29.7 1,017.0 1.2 S | 189 2.6 SW | 221 273 -58 0.0 0.0 48.7 3.8 12.24
5/22/22 - 0130 55.2 54.1 74 46.4 0.00 72.6 29.7 1,017.1 0.2 S | 189 1.3 S | 188 273 -59 0.0 0.0 49.5 3.8 12.24
5/22/22 - 0120 55.7 55.1 73 47.0 0.00 72.6 29.7 1,017.2 0.4 WSW | 244 2.5 WSW | 244 272 -61 0.0 0.0 50.1 3.8 12.24
5/22/22 - 0110 55.7 55.3 73 47.0 0.00 72.6 29.7 1,017.2 0.5 SSW | 194 1.9 S | 184 272 -61 0.0 0.0 50.7 3.8 12.24
5/22/22 - 0100 55.8 55.6 73 47.1 0.00 72.5 29.7 1,017.2 0.9 S | 191 2.8 S | 188 271 -62 0.0 10.0 51.4 3.8 12.24
5/22/22 - 0050 56.2 55.7 72 47.1 0.00 72.5 29.7 1,017.2 1.8 SSW | 197 3.0 SSW | 203 271 -63 0.1 10.0 51.9 3.8 12.24
5/22/22 - 0040 56.2 56.0 72 47.1 0.00 72.5 29.7 1,017.3 2.8 SSW | 198 4.1 SSW | 210 271 -64 0.4 10.0 52.0 3.8 12.24
5/22/22 - 0030 56.6 56.1 72 47.3 0.00 72.5 29.7 1,017.4 2.8 SSW | 198 5.2 SSW | 210 271 -64 0.3 9.9 52.0 3.8 12.24
5/22/22 - 0020 56.5 56.1 72 47.3 0.00 72.4 29.7 1,017.4 2.7 SSW | 195 4.6 SSW | 205 271 -63 0.3 9.8 51.9 3.8 12.24
5/22/22 - 0010 56.5 56.0 72 47.2 0.00 72.5 29.7 1,017.5 2.1 SSW | 196 3.6 SSW | 196 271 -62 0.2 9.8 52.1 3.8 12.24
5/22/22 - 0000 56.9 56.4 71 47.3 0.00 72.4 29.7 1,017.5 2.3 SSW | 197 3.7 SSW | 201 271 -63 0.1 9.8 52.5 3.8 12.24
5/21/22 - 2350 57.1 56.8 70 47.3 0.00 72.3 29.7 1,017.5 2.6 SSW | 207 4.0 WSW | 246 270 -63 0.2 9.8 52.6 3.8 12.24
5/21/22 - 2340 57.4 56.9 70 47.3 0.00 72.3 29.7 1,017.5 2.0 SW | 214 3.4 W | 262 270 -63 0.1 9.7 52.8 3.8 12.24
5/21/22 - 2330 57.4 57.1 70 47.4 0.00 72.3 29.7 1,017.5 2.4 SSW | 206 4.2 S | 186 270 -64 0.3 9.7 53.0 3.8 12.24
5/21/22 - 2320 57.7 57.2 69 47.4 0.00 72.3 29.7 1,017.6 1.8 SW | 218 3.1 SW | 217 270 -64 0.2 9.6 53.1 3.8 12.24
5/21/22 - 2310 57.7 57.4 69 47.4 0.00 72.2 29.7 1,017.7 2.3 SW | 229 3.7 SSE | 160 270 -64 0.2 9.6 53.4 3.8 12.24
5/21/22 - 2300 58.0 57.5 68 47.4 0.00 72.2 29.7 1,017.7 2.3 SSW | 209 4.7 SSW | 212 270 -65 0.2 9.6 53.6 3.8 12.24
5/21/22 - 2250 58.0 57.7 68 47.3 0.00 72.2 29.7 1,017.7 3.1 SSW | 206 6.1 SSW | 197 270 -65 0.6 9.6 53.4 3.8 12.24
5/21/22 - 2240 58.5 57.9 67 47.1 0.00 72.2 29.7 1,017.6 1.8 SW | 216 3.7 SW | 231 270 -65 0.1 9.4 53.7 3.8 12.24
5/21/22 - 2230 58.7 58.4 66 47.2 0.00 72.2 29.7 1,017.6 1.8 SW | 216 3.5 SW | 220 270 -65 0.1 9.4 54.1 3.8 12.24
5/21/22 - 2220 58.9 58.5 65 47.1 0.00 72.3 29.7 1,017.6 2.1 SW | 234 4.2 SW | 231 270 -66 0.2 9.4 54.4 3.8 12.24
5/21/22 - 2210 59.1 58.5 65 47.0 0.00 72.3 29.7 1,017.5 2.6 SW | 230 4.9 WSW | 238 270 -66 0.3 9.4 54.4 3.8 12.24
5/21/22 - 2200 59.5 59.0 64 47.1 0.00 72.4 29.7 1,017.5 1.9 SW | 217 4.4 WSW | 247 269 -66 0.1 9.4 54.8 3.8 12.24
5/21/22 - 2150 59.7 59.4 64 47.2 0.00 72.5 29.7 1,017.3 2.3 SW | 231 4.1 WSW | 254 269 -66 0.1 9.3 55.0 3.8 12.24
5/21/22 - 2140 60.2 59.4 63 47.1 0.00 72.5 29.7 1,017.2 1.3 SW | 232 3.1 SW | 224 269 -66 0.0 9.3 55.8 3.8 12.24
5/21/22 - 2130 60.6 60.0 62 47.3 0.00 72.5 29.7 1,017.1 1.6 WSW | 240 3.7 WSW | 254 269 -68 0.1 9.3 56.9 3.8 12.24
5/21/22 - 2120 61.0 60.4 62 47.5 0.00 72.5 29.7 1,017.1 1.1 WNW | 293 4.4 W | 280 269 -69 0.2 9.3 57.4 3.8 12.24
5/21/22 - 2110 61.3 60.8 61 47.6 0.00 72.7 29.7 1,017.0 0.6 WNW | 287 2.7 WNW | 297 269 -69 0.0 9.2 57.7 3.8 12.24
5/21/22 - 2100 61.6 61.3 61 47.9 0.00 72.7 29.7 1,016.8 1.1 W | 281 3.2 W | 275 269 -69 0.1 9.2 58.4 3.8 12.24
5/21/22 - 2050 62.1 61.6 61 48.1 0.00 72.7 29.7 1,016.7 1.5 W | 278 4.9 WSW | 256 268 -70 0.3 9.2 59.2 3.8 12.24
5/21/22 - 2040 62.4 62.0 60 48.2 0.00 72.8 29.7 1,016.6 2.5 W | 273 6.6 WSW | 243 268 -71 0.6 9.2 60.0 3.8 12.24
5/21/22 - 2030 62.8 62.3 59 48.3 0.00 72.9 29.7 1,016.6 2.9 W | 269 6.9 WSW | 254 268 -71 0.7 9.1 60.6 3.8 12.24
5/21/22 - 2020 63.5 62.8 59 48.5 0.00 72.9 29.7 1,016.4 2.5 W | 275 5.1 W | 268 268 -72 0.5 9.0 61.5 3.8 12.24
5/21/22 - 2010 63.9 63.3 58 48.7 0.00 73.0 29.7 1,016.2 1.3 W | 279 3.7 W | 263 268 -72 0.3 8.9 62.9 3.8 12.24
5/21/22 - 2000 64.6 63.7 58 49.0 0.00 73.0 29.7 1,016.1 2.4 WNW | 299 5.7 W | 266 268 -71 0.5 8.8 64.6 3.8 12.24
5/21/22 - 1950 65.5 64.4 57 49.3 0.00 73.1 29.7 1,016.0 2.8 W | 277 6.8 W | 261 268 -66 0.6 8.8 66.8 3.8 12.24
5/21/22 - 1940 65.9 65.5 55 49.2 0.00 73.1 29.7 1,015.9 2.9 WSW | 252 8.1 WSW | 240 268 -32 0.6 8.6 68.3 3.8 12.24
5/21/22 - 1930 66.3 65.8 54 49.0 0.00 73.2 29.7 1,015.8 3.2 WSW | 241 5.3 WSW | 241 268 -12 0.8 8.6 69.0 3.8 12.24
5/21/22 - 1920 66.9 66.3 53 48.9 0.00 73.2 29.7 1,015.7 3.7 SW | 230 8.1 W | 272 268 -8 0.9 8.4 69.9 3.8 12.24
5/21/22 - 1910 66.7 66.1 54 49.3 0.00 73.2 29.7 1,015.6 2.7 SSW | 205 5.8 WSW | 237 268 18 0.6 8.3 70.3 3.8 12.24
5/21/22 - 1900 66.5 66.0 54 49.3 0.00 73.2 29.7 1,015.5 2.9 SSW | 194 6.3 SSW | 208 268 2 0.6 8.2 70.8 3.8 12.24
5/21/22 - 1850 67.0 66.2 53 49.1 0.00 73.3 29.7 1,015.4 4.0 S | 186 6.8 SSE | 160 268 13 1.1 8.1 71.8 3.8 12.24
5/21/22 - 1840 67.8 66.8 52 49.0 0.00 73.3 29.7 1,015.3 3.5 SSE | 166 6.8 S | 169 267 28 0.9 7.9 73.2 3.8 12.24
5/21/22 - 1830 68.2 67.5 50 48.8 0.00 73.4 29.7 1,015.2 3.5 S | 185 5.8 SSW | 211 267 53 0.8 7.7 74.7 3.8 12.24
5/21/22 - 1820 68.7 68.0 50 48.8 0.00 73.3 29.7 1,015.0 3.6 SSE | 164 7.8 SW | 216 267 124 0.8 7.6 76.2 3.8 12.24
5/21/22 - 1810 69.2 68.2 49 49.0 0.00 73.3 29.7 1,015.0 3.8 SSE | 167 6.9 SE | 126 267 115 1.1 7.5 77.7 3.8 12.24
5/21/22 - 1800 69.9 68.8 49 49.3 0.00 73.3 29.7 1,014.9 3.9 S | 169 8.0 S | 184 267 143 1.0 7.3 79.4 3.8 12.24
5/21/22 - 1750 69.6 69.0 49 49.3 0.00 73.4 29.7 1,014.8 3.5 SSE | 158 6.8 SE | 130 267 217 0.8 7.1 80.7 3.8 12.24
5/21/22 - 1740 69.4 68.9 49 49.2 0.00 73.3 29.7 1,014.8 4.4 SSW | 196 8.0 SW | 218 267 198 1.3 7.0 81.7 3.8 12.24
5/21/22 - 1730 70.5 69.4 48 49.4 0.00 73.3 29.7 1,014.7 3.7 SSW | 201 6.4 S | 175 266 161 1.0 6.8 82.8 3.8 12.24
5/21/22 - 1720 70.9 70.2 48 49.7 0.00 73.3 29.6 1,014.7 2.4 SW | 228 4.9 SW | 230 266 127 0.6 6.6 83.7 3.8 12.24
5/21/22 - 1710 71.3 70.4 47 49.9 0.00 73.3 29.7 1,014.7 3.4 SW | 216 6.6 WSW | 256 266 222 0.6 6.5 83.2 3.8 12.24
5/21/22 - 1700 71.5 70.8 47 50.2 0.00 73.2 29.7 1,014.7 3.4 SSE | 164 6.9 SW | 220 266 296 0.4 6.4 82.8 3.8 12.24
5/21/22 - 1650 70.8 70.0 48 50.0 0.00 73.2 29.6 1,014.6 3.0 SSE | 168 6.5 S | 188 267 280 0.8 6.3 83.5 3.8 12.24
5/21/22 - 1640 70.5 68.9 50 50.0 0.00 73.1 29.6 1,014.6 3.7 S | 183 7.6 SSW | 195 267 286 0.9 6.2 85.3 3.8 12.24
5/21/22 - 1630 70.8 69.5 49 50.0 0.00 73.0 29.6 1,014.6 4.1 SSW | 194 8.1 SSW | 199 266 305 1.4 6.0 88.1 3.8 12.24
5/21/22 - 1620 70.8 70.1 48 50.1 0.00 73.0 29.6 1,014.6 4.5 SSW | 211 8.9 SW | 218 266 406 1.4 5.8 89.9 3.8 12.24
5/21/22 - 1610 70.9 70.3 48 50.2 0.00 73.0 29.6 1,014.6 3.7 S | 187 7.4 SW | 221 266 386 0.7 5.6 91.3 3.8 12.24
5/21/22 - 1600 70.7 69.6 49 50.1 0.00 73.0 29.6 1,014.7 3.1 WSW | 249 10.1 SW | 230 267 292 0.9 5.4 91.3 3.8 12.24
5/21/22 - 1550 71.1 69.4 48 50.0 0.00 73.0 29.6 1,014.7 3.6 SW | 216 8.1 SW | 232 267 239 1.1 5.3 92.9 3.8 12.24
5/21/22 - 1540 71.0 70.2 48 50.1 0.00 72.9 29.6 1,014.7 3.2 SW | 225 7.7 SSW | 203 266 304 0.9 5.1 94.5 3.8 12.24
5/21/22 - 1530 71.6 70.3 48 50.3 0.00 73.0 29.6 1,014.7 2.4 S | 171 6.0 SE | 144 266 291 0.6 5.0 97.6 3.8 12.24
5/21/22 - 1520 71.3 70.6 48 50.3 0.00 72.9 29.6 1,014.8 3.1 SW | 228 6.0 W | 270 266 420 0.8 4.9 98.5 3.8 12.24
5/21/22 - 1510 70.7 69.7 49 50.0 0.00 72.9 29.6 1,014.8 4.0 SW | 219 7.5 W | 278 266 537 1.4 4.7 96.7 3.8 12.24
5/21/22 - 1500 70.7 69.4 49 50.1 0.00 72.8 29.6 1,014.8 3.6 SSE | 161 7.7 SE | 139 266 415 0.8 4.5 95.3 3.8 12.24
5/21/22 - 1450 70.5 69.4 49 50.0 0.00 72.8 29.6 1,014.9 4.0 S | 173 7.8 SW | 226 267 437 1.3 4.4 94.7 3.8 12.24
5/21/22 - 1440 70.6 69.9 49 50.0 0.00 72.8 29.6 1,014.9 3.8 SSE | 166 8.3 SSW | 213 266 458 1.3 4.2 96.1 3.8 12.24
5/21/22 - 1430 70.7 68.4 51 50.1 0.00 72.7 29.6 1,015.0 4.4 S | 171 8.1 SSE | 160 266 518 1.2 3.9 94.5 3.8 12.24
5/21/22 - 1420 69.2 68.5 51 50.4 0.00 72.7 29.6 1,015.0 4.1 S | 170 9.0 SW | 216 266 298 1.1 3.7 93.8 3.8 12.24
5/21/22 - 1410 69.6 68.8 51 50.5 0.00 72.7 29.6 1,015.0 3.9 SE | 141 7.7 ESE | 105 267 303 0.8 3.6 94.9 3.8 12.24
5/21/22 - 1400 69.8 68.6 52 50.8 0.00 72.7 29.6 1,015.0 3.8 S | 179 6.3 SSW | 194 267 298 1.0 3.4 96.2 3.8 12.24
5/21/22 - 1350 70.4 68.8 52 50.9 0.00 72.6 29.6 1,014.9 3.2 S | 173 6.5 SSE | 149 267 201 0.7 3.3 102.5 3.8 12.24
5/21/22 - 1340 71.3 70.0 50 51.3 0.00 72.6 29.6 1,014.8 3.6 SE | 125 7.5 SE | 136 266 454 0.8 3.2 108.7 3.8 12.24
5/21/22 - 1330 71.2 68.2 52 51.5 0.00 72.1 29.6 1,014.8 4.1 SSE | 156 8.6 SSW | 210 266 728 1.2 3.0 100.6 3.8 12.24
5/21/22 - 1320 69.2 68.1 54 51.2 0.00 71.5 29.6 1,014.8 5.0 S | 177 8.9 SSW | 194 267 346 1.5 2.8 96.8 3.8 12.24
5/21/22 - 1310 69.7 68.6 53 51.2 0.00 71.6 29.6 1,014.7 4.4 SW | 217 8.5 SW | 231 267 242 1.2 2.6 101.0 3.8 12.24
5/21/22 - 1300 72.1 69.7 49 51.1 0.00 71.5 29.6 1,014.7 2.6 S | 185 5.9 SW | 228 266 251 0.8 2.4 112.9 3.8 12.24
5/21/22 - 1250 71.5 70.2 50 51.3 0.00 71.5 29.6 1,014.7 2.2 S | 186 5.1 SE | 139 266 612 0.4 2.2 117.3 3.8 12.24
5/21/22 - 1240 70.2 67.8 53 51.2 0.00 71.5 29.6 1,014.8 3.2 SSE | 154 8.2 SE | 146 266 754 1.0 2.2 105.6 3.8 12.24
5/21/22 - 1230 70.0 67.4 54 51.4 0.00 71.5 29.6 1,014.8 3.1 ESE | 123 10.7 SE | 131 266 452 0.9 2.0 94.5 3.8 12.24
5/21/22 - 1220 68.0 66.9 56 51.1 0.00 71.5 29.6 1,014.8 3.7 S | 181 8.4 WSW | 247 267 298 0.5 1.8 90.7 3.8 12.24
5/21/22 - 1210 68.4 67.0 55 51.0 0.00 71.5 29.6 1,014.8 3.3 SSW | 198 6.7 S | 180 268 145 0.8 1.8 97.1 3.8 12.24
5/21/22 - 1200 70.1 68.0 53 51.0 0.00 71.9 29.6 1,014.8 2.8 SE | 141 4.5 ESE | 106 267 174 0.7 1.6 110.2 3.8 12.24
5/21/22 - 1150 69.9 68.7 52 50.9 0.00 72.8 29.6 1,014.8 2.4 ENE | 71 6.0 ENE | 60 266 606 0.9 1.5 115.2 3.8 12.24
5/21/22 - 1140 69.6 69.0 53 51.6 0.00 72.8 29.6 1,014.8 3.3 ESE | 108 8.0 SE | 136 266 691 1.0 1.4 108.7 3.8 12.24
5/21/22 - 1130 69.4 65.7 56 51.6 0.00 72.7 29.6 1,014.8 2.4 ESE | 111 5.3 E | 79 266 698 0.7 1.2 92.4 3.8 12.24
5/21/22 - 1120 65.7 64.9 60 51.3 0.00 72.8 29.7 1,014.8 3.6 SE | 134 7.3 SE | 140 268 290 0.7 1.1 81.9 3.8 12.24
5/21/22 - 1110 65.9 64.9 60 51.4 0.00 72.9 29.7 1,014.8 3.7 SE | 136 7.4 SE | 127 268 168 0.7 1.0 82.2 3.8 12.24
5/21/22 - 1100 67.1 65.7 57 50.9 0.00 72.4 29.7 1,014.6 3.0 SE | 145 6.8 SE | 129 268 166 0.7 0.8 84.5 3.8 12.24
5/21/22 - 1050 67.7 67.0 52 48.9 0.00 71.9 29.7 1,014.5 1.4 ESE | 119 3.0 NE | 54 268 163 0.3 0.7 86.3 3.8 12.24
5/21/22 - 1040 67.7 66.0 52 48.7 0.00 72.0 29.7 1,014.5 0.6 SSE | 164 2.2 S | 182 266 354 0.3 0.7 78.4 3.8 12.24
5/21/22 - 1030 66.0 65.4 54 48.7 0.00 72.0 29.7 1,014.5 0.6 ENE | 77 1.9 E | 98 268 100 0.1 0.6 77.7 3.8 12.24
5/21/22 - 1020 65.7 65.2 54 48.5 0.00 72.0 29.7 1,014.4 1.2 ENE | 66 2.5 ENE | 78 268 118 0.2 0.6 79.1 3.8 12.24
5/21/22 - 1010 65.5 64.9 54 48.3 0.00 71.8 29.7 1,014.4 0.8 NE | 50 2.2 NNE | 29 268 107 0.1 0.6 81.4 3.8 12.24
5/21/22 - 1000 65.4 64.9 55 48.5 0.00 71.9 29.7 1,014.3 1.1 NE | 37 2.9 NNE | 23 268 146 0.3 0.6 83.7 3.8 12.24
5/21/22 - 0950 65.4 64.3 56 49.0 0.00 71.9 29.7 1,014.3 1.2 ENE | 73 3.4 E | 88 267 262 0.4 0.5 80.0 3.8 12.24
5/21/22 - 0940 64.8 63.5 60 49.9 0.00 71.8 29.7 1,014.4 1.2 NE | 37 2.7 E | 79 269 186 0.2 0.4 78.5 3.8 12.24
5/21/22 - 0930 63.5 62.9 64 50.6 0.00 71.9 29.7 1,014.4 1.3 E | 95 2.9 E | 97 268 196 0.4 0.4 73.6 3.8 12.24
5/21/22 - 0920 63.2 62.6 65 51.1 0.00 71.9 29.7 1,014.4 1.2 ESE | 114 2.6 ENE | 76 269 113 0.3 0.3 72.4 3.8 12.24
5/21/22 - 0910 62.9 62.2 66 51.0 0.00 71.9 29.7 1,014.3 0.7 NE | 53 2.3 E | 83 270 94 0.1 0.3 72.3 3.8 12.24
5/21/22 - 0900 62.4 62.0 67 51.1 0.00 72.0 29.7 1,014.3 1.4 SW | 216 3.6 SW | 228 270 82 0.0 0.3 72.3 3.8 12.24
5/21/22 - 0850 62.4 61.6 69 51.5 0.00 72.0 29.7 1,014.2 1.1 W | 260 3.1 SW | 236 270 91 0.2 0.3 72.0 3.8 12.24
5/21/22 - 0840 62.0 61.5 69 51.4 0.00 71.9 29.7 1,014.2 1.9 W | 274 4.3 W | 267 270 94 0.2 0.2 71.2 3.8 12.24
5/21/22 - 0830 62.0 61.4 70 51.8 0.00 71.9 29.7 1,014.1 0.9 WSW | 256 3.9 W | 277 270 92 0.1 0.2 71.0 3.8 12.24
5/21/22 - 0820 61.7 61.4 70 51.8 0.00 72.0 29.7 1,014.1 2.1 SSW | 193 3.6 SSW | 193 270 75 0.1 0.2 71.0 3.8 12.24
5/21/22 - 0810 61.7 60.8 71 51.9 0.00 71.9 29.7 1,014.0 1.6 WSW | 256 4.4 W | 271 270 119 0.2 0.2 69.9 3.8 12.24
5/21/22 - 0800 61.0 60.4 72 51.8 0.00 72.0 29.7 1,013.9 1.8 WSW | 245 3.6 SW | 225 271 125 0.2 0.2 67.8 3.8 12.24
5/21/22 - 0750 60.7 59.4 75 52.1 0.00 71.9 29.7 1,013.8 1.5 SW | 226 5.0 SW | 225 271 136 0.2 0.1 64.0 3.8 12.24
5/21/22 - 0740 59.6 59.3 76 51.9 0.00 71.9 29.7 1,013.7 2.1 WSW | 254 3.7 W | 278 272 38 0.2 0.1 61.7 3.8 12.24
5/21/22 - 0730 59.4 58.6 78 52.3 0.00 71.9 29.7 1,013.6 1.2 WSW | 258 2.8 W | 281 272 44 0.2 0.0 60.8 3.8 12.24
5/21/22 - 0720 58.6 57.6 82 52.6 0.00 71.9 29.7 1,013.6 0.9 S | 169 2.3 S | 183 272 59 0.0 0.0 59.1 3.8 12.24
5/21/22 - 0710 57.7 56.4 86 52.8 0.00 71.9 29.8 1,013.5 1.3 SE | 145 2.6 SE | 142 273 58 0.0 0.0 56.8 3.8 12.24
5/21/22 - 0700 56.6 55.4 89 52.7 0.00 71.8 29.8 1,013.4 1.5 SSE | 154 2.7 SE | 137 248 48 0.0 0.0 53.5 3.8 12.24
5/21/22 - 0650 55.4 54.4 89 51.6 0.00 71.8 29.8 1,013.4 0.6 SSE | 148 2.4 S | 191 250 22 0.0 0.0 50.7 3.8 12.24
5/21/22 - 0640 54.8 54.0 89 51.4 0.00 71.9 29.8 1,013.3 0.2 SSE | 150 1.1 SE | 140 253 5 0.0 0.0 49.4 3.8 12.24
5/21/22 - 0630 54.1 53.6 89 50.8 0.00 71.9 29.8 1,013.2 0.9 S | 176 1.8 S | 176 254 -2 0.0 0.0 48.7 3.8 12.24
5/21/22 - 0620 54.0 53.1 89 50.4 0.00 72.0 29.8 1,013.1 0.2 SSE | 161 0.8 SSE | 151 254 -11 0.0 0.0 48.1 3.8 12.24
5/21/22 - 0610 53.9 53.0 88 49.9 0.00 72.0 29.8 1,013.0 1.0 S | 189 1.7 SSW | 194 255 -19 0.0 0.0 47.7 3.8 12.24
5/21/22 - 0600 54.1 53.6 88 50.3 0.00 72.1 29.8 1,012.9 0.6 S | 174 1.2 S | 190 256 -26 0.0 0.0 48.0 3.8 12.24
5/21/22 - 0550 54.2 53.8 88 50.4 0.00 72.2 29.8 1,012.8 0.2 S | 176 0.9 S | 191 255 -31 0.0 0.0 48.5 3.8 12.24
5/21/22 - 0540 53.9 53.4 87 49.9 0.00 72.3 29.8 1,012.8 0.1 S | 171 0.7 S | 190 254 -29 0.0 0.0 48.5 3.8 12.24
5/21/22 - 0530 54.8 53.6 87 50.4 0.00 72.5 29.8 1,012.7 0.7 SSE | 149 1.5 SSE | 168 254 -31 0.0 0.0 48.3 3.8 12.24
5/21/22 - 0520 54.8 54.1 86 50.5 0.00 72.5 29.8 1,012.6 0.3 SSE | 168 1.1 S | 169 253 -33 0.0 0.0 48.4 3.8 12.24
5/21/22 - 0510 54.9 54.5 86 50.5 0.00 72.6 29.8 1,012.5 1.1 SSW | 194 1.6 SSW | 198 252 -34 0.0 0.0 48.5 3.8 12.24
5/21/22 - 0500 55.3 54.6 85 50.6 0.00 72.7 29.8 1,012.5 0.0 S | 173 0.4 S | 173 252 -41 0.0 0.0 48.8 3.8 12.24
5/21/22 - 0450 55.8 55.2 85 51.1 0.00 72.8 29.8 1,012.5 1.3 SSW | 212 1.9 WSW | 249 251 -42 0.0 0.0 49.2 3.8 12.24
5/21/22 - 0440 55.8